Time;durP1;ratioP1;P1;durP2;ratioP2;P2;SDS_P1;SDS_P2;PMS_P1;PMS_P2;Temp;Humidity;BMP_temperature;BMP_pressure;BME280_temperature;BME280_humidity;BME280_pressure;Samples;Min_cycle;Max_cycle;Signal;HPM_P1;HPM_P2
2022/12/05 00:01:53;;;;;;;18.20;7.43;;;;;;;;;;5068761;28;20097;-66
2022/12/05 00:04:18;;;;;;;10.70;6.35;;;;;;;;;;5068969;28;20067;-65
2022/12/05 00:06:44;;;;;;;12.80;7.00;;;;;;;;;;5069359;28;20029;-66
2022/12/05 00:09:11;;;;;;;12.60;6.47;;;;;;;;;;5068576;28;20110;-66
2022/12/05 00:11:37;;;;;;;13.30;6.18;;;;;;;;;;5070210;28;20030;-66
2022/12/05 00:14:03;;;;;;;14.15;6.22;;;;;;;;;;5073420;28;20039;-65
2022/12/05 00:16:30;;;;;;;11.90;6.15;;;;;;;;;;5071827;28;20109;-65
2022/12/05 00:18:57;;;;;;;12.07;5.35;;;;;;;;;;5073312;28;20020;-65
2022/12/05 00:21:24;;;;;;;12.43;6.25;;;;;;;;;;5071429;28;20044;-65
2022/12/05 00:23:50;;;;;;;12.40;5.57;;;;;;;;;;5072015;28;20060;-65
2022/12/05 00:26:15;;;;;;;12.32;6.32;;;;;;;;;;5071745;28;20119;-65
2022/12/05 00:28:41;;;;;;;14.13;5.60;;;;;;;;;;5072824;28;20096;-66
2022/12/05 00:31:07;;;;;;;16.02;6.50;;;;;;;;;;5072958;28;20020;-65
2022/12/05 00:33:33;;;;;;;13.32;6.18;;;;;;;;;;5071454;28;20123;-66
2022/12/05 00:36:06;;;;;;;11.38;5.90;;;;;;;;;;5071290;28;20230;-65
2022/12/05 00:38:31;;;;;;;15.77;7.10;;;;;;;;;;5071431;28;20030;-67
2022/12/05 00:41:01;;;;;;;13.07;5.90;;;;;;;;;;5071454;28;20362;-65
2022/12/05 00:43:26;;;;;;;14.20;6.05;;;;;;;;;;5071039;28;20125;-65
2022/12/05 00:45:51;;;;;;;13.80;6.43;;;;;;;;;;5072749;28;20032;-64
2022/12/05 00:48:17;;;;;;;11.52;6.18;;;;;;;;;;5074134;28;20108;-66
2022/12/05 00:50:42;;;;;;;13.27;6.85;;;;;;;;;;5074150;28;20023;-66
2022/12/05 00:53:07;;;;;;;15.45;7.80;;;;;;;;;;5093012;28;20062;-65
2022/12/05 00:55:35;;;;;;;18.65;8.32;;;;;;;;;;5092395;28;20245;-66
2022/12/05 00:58:00;;;;;;;15.00;6.85;;;;;;;;;;5074631;28;20028;-65
2022/12/05 01:00:26;;;;;;;18.73;7.22;;;;;;;;;;5074322;28;20081;-66
2022/12/05 01:02:51;;;;;;;18.35;7.28;;;;;;;;;;5092251;28;20050;-66
2022/12/05 01:05:16;;;;;;;14.55;6.97;;;;;;;;;;5074065;28;20035;-66
2022/12/05 01:07:42;;;;;;;13.30;6.45;;;;;;;;;;5092711;28;20028;-66
2022/12/05 01:10:07;;;;;;;14.15;7.05;;;;;;;;;;5092211;28;20076;-66
2022/12/05 01:12:32;;;;;;;18.13;7.60;;;;;;;;;;5074001;28;20031;-67
2022/12/05 01:14:58;;;;;;;19.75;7.22;;;;;;;;;;5074098;28;20020;-66
2022/12/05 01:17:23;;;;;;;17.70;7.28;;;;;;;;;;5073720;28;20130;-67
2022/12/05 01:19:49;;;;;;;15.82;7.38;;;;;;;;;;5073812;28;20024;-66
2022/12/05 01:22:15;;;;;;;16.65;6.95;;;;;;;;;;5093629;28;20024;-66
2022/12/05 01:24:40;;;;;;;21.08;7.72;;;;;;;;;;5073858;28;20028;-66
2022/12/05 01:27:05;;;;;;;20.23;7.18;;;;;;;;;;5073697;28;20506;-67
2022/12/05 01:29:30;;;;;;;15.32;7.32;;;;;;;;;;5091912;28;20024;-66
2022/12/05 01:31:56;;;;;;;17.50;7.10;;;;;;;;;;5073690;28;20020;-66
2022/12/05 01:34:23;;;;;;;18.05;8.45;;;;;;;;;;5073593;28;20024;-66
2022/12/05 01:36:48;;;;;;;17.98;8.20;;;;;;;;;;5073611;28;20553;-67
2022/12/05 01:39:14;;;;;;;19.35;8.20;;;;;;;;;;5073844;28;20111;-67
2022/12/05 01:41:44;;;;;;;20.75;8.98;;;;;;;;;;5091516;28;20022;-66
2022/12/05 01:44:10;;;;;;;25.63;9.38;;;;;;;;;;5091822;28;20115;-66
2022/12/05 01:46:36;;;;;;;16.70;7.82;;;;;;;;;;5073368;28;20112;-67
2022/12/05 01:49:13;;;;;;;12.63;7.22;;;;;;;;;;5069606;28;20094;-67
2022/12/05 01:51:40;;;;;;;15.35;7.40;;;;;;;;;;5071081;28;20103;-67
2022/12/05 01:54:06;;;;;;;16.67;7.18;;;;;;;;;;5070024;28;20024;-67
2022/12/05 01:56:33;;;;;;;14.32;7.28;;;;;;;;;;5069616;28;20471;-68
2022/12/05 01:58:59;;;;;;;10.52;6.00;;;;;;;;;;5071228;28;20028;-67
2022/12/05 02:01:24;;;;;;;12.32;6.07;;;;;;;;;;5070760;28;20363;-67
2022/12/05 02:03:51;;;;;;;16.15;6.88;;;;;;;;;;5069868;28;20020;-67
2022/12/05 02:06:17;;;;;;;11.65;6.07;;;;;;;;;;5069768;28;20021;-67
2022/12/05 02:08:43;;;;;;;13.18;6.07;;;;;;;;;;5069560;28;20390;-67
2022/12/05 02:11:08;;;;;;;14.82;7.07;;;;;;;;;;5069787;28;20025;-67
2022/12/05 02:13:53;;;;;;;13.52;6.93;;;;;;;;;;5069052;28;20465;-67
2022/12/05 02:16:36;;;;;;;14.13;7.28;;;;;;;;;;5070972;28;20043;-67
2022/12/05 02:19:20;;;;;;;13.68;8.02;;;;;;;;;;5070981;28;20031;-67
2022/12/05 02:22:04;;;;;;;17.50;8.23;;;;;;;;;;5069281;28;20020;-67
2022/12/05 02:24:53;;;;;;;13.27;7.13;;;;;;;;;;5070705;28;20032;-67
2022/12/05 02:27:30;;;;;;;15.55;8.23;;;;;;;;;;5070692;28;20027;-67
2022/12/05 02:30:16;;;;;;;17.13;7.30;;;;;;;;;;5069489;28;20057;-66
2022/12/05 02:32:56;;;;;;;17.85;8.27;;;;;;;;;;5068832;28;20064;-67
2022/12/05 02:35:26;;;;;;;18.67;9.23;;;;;;;;;;5068890;28;20028;-66
2022/12/05 02:38:01;;;;;;;16.73;8.45;;;;;;;;;;5070763;28;20096;-66
2022/12/05 02:40:46;;;;;;;16.67;7.15;;;;;;;;;;5070583;28;20056;-67
2022/12/05 02:43:22;;;;;;;17.75;7.50;;;;;;;;;;5071942;28;20116;-67
2022/12/05 02:45:49;;;;;;;16.35;7.95;;;;;;;;;;5069193;28;20078;-67
2022/12/05 02:48:15;;;;;;;16.70;7.10;;;;;;;;;;5073368;28;20054;-66
2022/12/05 02:50:42;;;;;;;18.80;8.38;;;;;;;;;;5090616;28;20024;-66
2022/12/05 02:53:09;;;;;;;15.30;7.68;;;;;;;;;;5072205;28;20055;-67
2022/12/05 02:55:35;;;;;;;14.52;7.28;;;;;;;;;;5090242;28;20046;-67
2022/12/05 02:58:05;;;;;;;21.38;9.07;;;;;;;;;;5090723;28;20028;-67
2022/12/05 03:00:30;;;;;;;15.52;7.78;;;;;;;;;;5090764;28;20150;-67
2022/12/05 03:02:58;;;;;;;17.63;6.82;;;;;;;;;;5091398;28;20099;-66
2022/12/05 03:05:33;;;;;;;15.20;7.15;;;;;;;;;;5090418;28;20488;-66
2022/12/05 03:08:00;;;;;;;15.93;7.18;;;;;;;;;;5072361;28;20028;-66
2022/12/05 03:10:26;;;;;;;17.80;8.55;;;;;;;;;;5090565;28;20026;-67
2022/12/05 03:12:56;;;;;;;13.70;6.55;;;;;;;;;;5072405;28;20129;-66
2022/12/05 03:15:29;;;;;;;11.73;6.45;;;;;;;;;;5090603;28;20053;-66
2022/12/05 03:17:58;;;;;;;13.50;6.25;;;;;;;;;;5090436;28;20099;-67
2022/12/05 03:20:26;;;;;;;10.93;6.32;;;;;;;;;;5071867;28;20028;-67
2022/12/05 03:23:04;;;;;;;17.48;7.93;;;;;;;;;;5090401;28;20027;-66
2022/12/05 03:25:50;;;;;;;13.15;7.13;;;;;;;;;;5072103;28;20400;-66
2022/12/05 03:28:22;;;;;;;11.52;6.78;;;;;;;;;;5075610;28;20036;-66
2022/12/05 03:30:50;;;;;;;13.38;6.72;;;;;;;;;;5089810;28;20026;-66
2022/12/05 03:33:38;;;;;;;15.20;7.32;;;;;;;;;;5071539;28;20032;-66
2022/12/05 03:36:11;;;;;;;9.60;5.28;;;;;;;;;;5071797;28;20523;-66
2022/12/05 03:38:44;;;;;;;11.43;6.47;;;;;;;;;;5089871;28;20475;-66
2022/12/05 03:41:22;;;;;;;16.42;6.90;;;;;;;;;;5090469;28;20051;-66
2022/12/05 03:44:00;;;;;;;14.55;6.32;;;;;;;;;;5072037;28;20126;-66
2022/12/05 03:46:36;;;;;;;12.75;5.28;;;;;;;;;;5075368;28;20367;-66
2022/12/05 03:49:10;;;;;;;11.20;5.78;;;;;;;;;;5093894;28;20047;-66
2022/12/05 03:51:49;;;;;;;13.43;5.65;;;;;;;;;;5093616;28;20079;-66
2022/12/05 03:54:14;;;;;;;11.93;5.30;;;;;;;;;;5094017;28;20023;-66
2022/12/05 03:56:45;;;;;;;15.05;6.45;;;;;;;;;;5075434;28;20028;-66
2022/12/05 03:59:33;;;;;;;12.43;5.70;;;;;;;;;;5075707;28;20035;-66
2022/12/05 04:02:00;;;;;;;10.10;5.63;;;;;;;;;;5082428;28;20028;-66
2022/12/05 04:04:28;;;;;;;10.55;5.30;;;;;;;;;;5075284;28;20043;-67
2022/12/05 04:06:55;;;;;;;12.68;6.03;;;;;;;;;;5093471;28;20043;-66
2022/12/05 04:09:27;;;;;;;9.70;5.22;;;;;;;;;;5075328;28;20470;-66
2022/12/05 04:12:03;;;;;;;10.30;5.03;;;;;;;;;;5093533;28;20026;-66
2022/12/05 04:14:39;;;;;;;8.85;5.32;;;;;;;;;;5075246;28;20051;-67
2022/12/05 04:17:08;;;;;;;10.52;5.55;;;;;;;;;;5093574;28;20555;-67
2022/12/05 04:21:36;;;;;;;7.05;4.28;;;;;;;;;;5093251;28;20020;-66
2022/12/05 04:22:19;;;;;;;11.18;5.38;;;;;;;;;;5093285;28;20135;-66
2022/12/05 04:27:41;;;;;;;9.77;4.68;;;;;;;;;;5093307;28;20023;-66
2022/12/05 04:30:10;;;;;;;10.13;5.32;;;;;;;;;;5093142;28;20020;-66
2022/12/05 04:32:59;;;;;;;10.35;4.68;;;;;;;;;;5092921;28;20043;-66
2022/12/05 04:35:26;;;;;;;9.25;4.72;;;;;;;;;;5074428;28;20035;-67
2022/12/05 04:37:54;;;;;;;7.00;4.55;;;;;;;;;;5074842;28;20023;-66
2022/12/05 04:40:28;;;;;;;11.73;6.43;;;;;;;;;;5093120;28;20095;-66
2022/12/05 04:42:55;;;;;;;13.13;5.80;;;;;;;;;;5092898;28;20020;-66
2022/12/05 04:45:21;;;;;;;11.45;6.10;;;;;;;;;;5092577;28;20136;-67
2022/12/05 04:47:58;;;;;;;9.52;5.57;;;;;;;;;;5074494;28;20024;-67
2022/12/05 04:50:25;;;;;;;13.73;5.53;;;;;;;;;;5092664;28;20048;-68
2022/12/05 04:52:53;;;;;;;10.27;5.38;;;;;;;;;;5074258;28;20024;-66
2022/12/05 04:55:24;;;;;;;15.05;5.00;;;;;;;;;;5074253;28;20017;-66
2022/12/05 04:57:49;;;;;;;13.73;6.35;;;;;;;;;;5073630;28;20043;-67
2022/12/05 05:00:15;;;;;;;9.40;5.50;;;;;;;;;;5092582;28;20529;-67
2022/12/05 05:02:43;;;;;;;11.57;4.93;;;;;;;;;;5092005;28;20024;-67
2022/12/05 05:05:10;;;;;;;10.93;5.60;;;;;;;;;;5092864;28;20023;-67
2022/12/05 05:07:42;;;;;;;11.15;5.60;;;;;;;;;;5073990;28;20024;-67
2022/12/05 05:10:10;;;;;;;11.95;5.18;;;;;;;;;;5092234;28;20041;-67
2022/12/05 05:12:35;;;;;;;10.82;5.75;;;;;;;;;;5073862;28;20016;-67
2022/12/05 05:15:01;;;;;;;10.43;5.80;;;;;;;;;;5092014;28;20066;-68
2022/12/05 05:17:26;;;;;;;10.18;5.97;;;;;;;;;;5091753;28;20058;-66
2022/12/05 05:20:22;;;;;;;7.75;4.85;;;;;;;;;;5092580;28;20023;-66
2022/12/05 05:22:37;;;;;;;8.70;4.90;;;;;;;;;;5091419;28;20035;-66
2022/12/05 05:25:02;;;;;;;12.48;4.97;;;;;;;;;;5092188;28;20096;-66
2022/12/05 05:27:27;;;;;;;12.35;5.13;;;;;;;;;;5091571;28;20070;-66
2022/12/05 05:29:53;;;;;;;12.15;5.30;;;;;;;;;;5073541;28;20032;-66
2022/12/05 05:32:18;;;;;;;13.68;6.68;;;;;;;;;;5091944;28;20095;-66
2022/12/05 05:34:43;;;;;;;9.95;5.30;;;;;;;;;;5091618;28;20094;-66
2022/12/05 05:37:08;;;;;;;9.68;5.32;;;;;;;;;;5073514;28;20062;-66
2022/12/05 05:39:34;;;;;;;20.75;7.90;;;;;;;;;;5091469;28;20455;-66
2022/12/05 05:41:59;;;;;;;15.35;6.88;;;;;;;;;;5073523;28;20498;-66
2022/12/05 05:44:24;;;;;;;15.57;7.38;;;;;;;;;;5072987;28;20024;-66
2022/12/05 05:46:50;;;;;;;9.32;4.85;;;;;;;;;;5073510;28;20467;-65
2022/12/05 05:49:15;;;;;;;30.23;12.90;;;;;;;;;;5073059;28;20391;-67
2022/12/05 05:51:40;;;;;;;17.45;7.35;;;;;;;;;;5073294;28;20028;-66
2022/12/05 05:54:06;;;;;;;36.90;13.98;;;;;;;;;;5091294;28;20021;-66
2022/12/05 05:56:31;;;;;;;20.27;10.10;;;;;;;;;;5091355;28;20098;-69
2022/12/05 05:58:57;;;;;;;20.35;9.88;;;;;;;;;;5091742;28;20024;-66
2022/12/05 06:01:23;;;;;;;24.52;10.45;;;;;;;;;;5091765;28;20028;-67
2022/12/05 06:03:49;;;;;;;12.98;6.05;;;;;;;;;;5073019;28;20107;-67
2022/12/05 06:06:15;;;;;;;16.17;7.38;;;;;;;;;;5091552;28;20040;-66
2022/12/05 06:08:41;;;;;;;10.73;6.13;;;;;;;;;;5090970;28;20062;-67
2022/12/05 06:11:10;;;;;;;13.13;5.63;;;;;;;;;;5072793;28;20020;-66
2022/12/05 06:13:36;;;;;;;10.38;5.53;;;;;;;;;;5072395;28;20058;-67
2022/12/05 06:16:04;;;;;;;14.85;6.65;;;;;;;;;;5073008;28;20040;-67
2022/12/05 06:18:29;;;;;;;17.73;8.38;;;;;;;;;;5072898;28;20051;-67
2022/12/05 06:20:55;;;;;;;16.38;7.03;;;;;;;;;;5090728;28;20501;-66
2022/12/05 06:23:21;;;;;;;10.50;5.45;;;;;;;;;;5072522;28;20019;-66
2022/12/05 06:25:47;;;;;;;11.32;5.28;;;;;;;;;;5090687;28;20020;-66
2022/12/05 06:28:13;;;;;;;10.15;5.13;;;;;;;;;;5072736;28;20032;-66
2022/12/05 06:30:38;;;;;;;15.00;7.10;;;;;;;;;;5090856;28;20023;-66
2022/12/05 06:33:03;;;;;;;11.32;6.03;;;;;;;;;;5090911;28;20030;-66
2022/12/05 06:35:29;;;;;;;14.43;6.90;;;;;;;;;;5072247;28;20084;-66
2022/12/05 06:37:55;;;;;;;12.13;5.88;;;;;;;;;;5090251;28;20048;-67
2022/12/05 06:40:20;;;;;;;11.75;6.05;;;;;;;;;;5072404;28;20077;-66
2022/12/05 06:42:46;;;;;;;14.32;7.00;;;;;;;;;;5090144;28;20020;-67
2022/12/05 06:45:11;;;;;;;12.27;7.25;;;;;;;;;;5073937;28;20035;-66
2022/12/05 06:47:36;;;;;;;13.38;6.38;;;;;;;;;;5072039;28;20023;-67
2022/12/05 06:50:02;;;;;;;14.18;6.95;;;;;;;;;;5090228;28;20048;-66
2022/12/05 06:52:27;;;;;;;15.48;7.35;;;;;;;;;;5090596;28;20035;-66
2022/12/05 06:54:53;;;;;;;14.10;7.40;;;;;;;;;;5072023;28;20111;-65
2022/12/05 06:57:18;;;;;;;14.43;6.65;;;;;;;;;;5085435;28;20019;-67
2022/12/05 06:59:43;;;;;;;13.27;6.45;;;;;;;;;;5101999;28;20119;-66
2022/12/05 07:02:10;;;;;;;12.45;6.72;;;;;;;;;;5113502;28;20015;-66
2022/12/05 07:04:35;;;;;;;15.35;7.05;;;;;;;;;;5105106;28;20047;-66
2022/12/05 07:07:01;;;;;;;10.80;6.35;;;;;;;;;;5078886;28;20454;-64
2022/12/05 07:09:44;;;;;;;12.35;6.78;;;;;;;;;;5090682;28;20027;-66
2022/12/05 07:12:11;;;;;;;10.10;5.55;;;;;;;;;;5099340;28;20111;-67
2022/12/05 07:14:36;;;;;;;10.32;5.63;;;;;;;;;;5079523;28;20020;-70
2022/12/05 07:17:01;;;;;;;8.15;5.20;;;;;;;;;;5111218;28;20042;-69
2022/12/05 07:19:27;;;;;;;11.07;5.50;;;;;;;;;;5094775;27;20465;-68
2022/12/05 07:21:52;;;;;;;9.73;5.32;;;;;;;;;;5132957;27;20106;-68
2022/12/05 07:24:18;;;;;;;7.45;4.82;;;;;;;;;;5110905;27;20027;-68
2022/12/05 07:26:43;;;;;;;8.13;4.43;;;;;;;;;;5095351;27;20032;-66
2022/12/05 07:29:08;;;;;;;7.38;4.05;;;;;;;;;;5084491;28;20028;-68
2022/12/05 07:31:35;;;;;;;11.05;5.38;;;;;;;;;;5110711;28;20019;-67
2022/12/05 07:34:00;;;;;;;9.38;4.78;;;;;;;;;;5094483;28;20012;-66
2022/12/05 07:36:26;;;;;;;9.57;4.65;;;;;;;;;;5095863;28;20031;-65
2022/12/05 07:38:55;;;;;;;6.53;4.05;;;;;;;;;;5104812;28;20035;-65
2022/12/05 07:41:23;;;;;;;8.15;4.57;;;;;;;;;;5090983;28;20027;-67
2022/12/05 07:43:52;;;;;;;7.32;4.05;;;;;;;;;;5088287;28;20028;-65
2022/12/05 07:46:17;;;;;;;6.60;4.00;;;;;;;;;;5111717;28;20031;-65
2022/12/05 07:48:43;;;;;;;9.43;4.80;;;;;;;;;;5112069;27;20059;-67
2022/12/05 07:51:09;;;;;;;8.18;4.78;;;;;;;;;;5090891;28;20070;-67
2022/12/05 07:53:34;;;;;;;8.40;4.57;;;;;;;;;;5110909;28;20422;-66
2022/12/05 07:56:00;;;;;;;10.75;4.68;;;;;;;;;;5095175;28;20038;-66
2022/12/05 07:58:29;;;;;;;8.40;5.25;;;;;;;;;;5094723;28;20065;-67
2022/12/05 08:00:55;;;;;;;9.70;5.53;;;;;;;;;;5109724;27;20036;-66
2022/12/05 08:03:20;;;;;;;12.07;5.15;;;;;;;;;;5105525;28;20022;-65
2022/12/05 08:05:45;;;;;;;12.73;5.75;;;;;;;;;;5087409;27;20027;-66
2022/12/05 08:08:11;;;;;;;8.80;5.43;;;;;;;;;;5107456;27;20030;-64
2022/12/05 08:10:36;;;;;;;9.32;4.80;;;;;;;;;;5107382;28;20027;-67
2022/12/05 08:13:01;;;;;;;25.30;7.13;;;;;;;;;;5092504;28;20026;-66
2022/12/05 08:15:27;;;;;;;8.75;4.72;;;;;;;;;;5098448;27;20055;-65
2022/12/05 08:17:52;;;;;;;9.52;5.22;;;;;;;;;;5084623;28;20114;-66
2022/12/05 08:20:17;;;;;;;10.45;5.68;;;;;;;;;;5107554;28;20027;-67
2022/12/05 08:22:43;;;;;;;8.68;4.30;;;;;;;;;;5089917;28;20057;-65
2022/12/05 08:25:08;;;;;;;8.85;4.65;;;;;;;;;;5089938;28;20089;-65
2022/12/05 08:27:34;;;;;;;9.90;5.57;;;;;;;;;;5102608;27;20023;-65
2022/12/05 08:29:59;;;;;;;12.45;5.72;;;;;;;;;;5105833;28;20485;-66
2022/12/05 08:32:25;;;;;;;10.18;5.32;;;;;;;;;;5106868;27;20019;-65
2022/12/05 08:34:51;;;;;;;7.57;5.30;;;;;;;;;;5104238;28;20024;-65
2022/12/05 08:37:16;;;;;;;10.27;5.15;;;;;;;;;;5101858;28;20116;-66
2022/12/05 08:39:41;;;;;;;9.45;4.85;;;;;;;;;;5101413;28;20038;-65
2022/12/05 08:42:07;;;;;;;12.35;5.35;;;;;;;;;;5107443;27;20745;-66
2022/12/05 08:44:32;;;;;;;9.88;4.60;;;;;;;;;;5088184;28;20019;-66
2022/12/05 08:46:57;;;;;;;11.40;5.95;;;;;;;;;;5098509;28;20032;-66
2022/12/05 08:49:23;;;;;;;8.82;5.03;;;;;;;;;;5107288;28;20039;-67
2022/12/05 08:51:48;;;;;;;9.15;4.93;;;;;;;;;;5105327;28;20024;-66
2022/12/05 08:54:14;;;;;;;7.85;5.43;;;;;;;;;;5092516;28;20027;-69
2022/12/05 08:56:39;;;;;;;10.85;5.10;;;;;;;;;;5091579;28;20074;-69
2022/12/05 08:59:05;;;;;;;10.48;5.00;;;;;;;;;;5111709;27;20099;-65
2022/12/05 09:01:31;;;;;;;12.23;5.18;;;;;;;;;;5093220;28;20016;-65
2022/12/05 09:03:57;;;;;;;12.70;5.60;;;;;;;;;;5099806;28;20511;-67
2022/12/05 09:06:23;;;;;;;9.15;5.40;;;;;;;;;;5109485;28;20032;-65
2022/12/05 09:08:53;;;;;;;8.55;4.03;;;;;;;;;;5091582;28;20054;-66
2022/12/05 09:11:20;;;;;;;11.55;5.82;;;;;;;;;;5112454;27;20028;-67
2022/12/05 09:13:45;;;;;;;10.80;5.53;;;;;;;;;;5109248;27;20054;-67
2022/12/05 09:16:15;;;;;;;8.98;4.95;;;;;;;;;;5085197;28;20505;-69
2022/12/05 09:18:41;;;;;;;14.50;5.97;;;;;;;;;;5097121;28;20027;-68
2022/12/05 09:21:10;;;;;;;11.27;5.53;;;;;;;;;;5104072;27;20092;-66
2022/12/05 09:23:36;;;;;;;8.55;5.10;;;;;;;;;;5104741;28;20027;-67
2022/12/05 09:26:02;;;;;;;8.80;4.75;;;;;;;;;;5094761;27;20057;-69
2022/12/05 09:28:28;;;;;;;9.60;5.28;;;;;;;;;;5095171;28;20051;-69
2022/12/05 09:30:57;;;;;;;14.95;5.47;;;;;;;;;;5097074;28;20032;-69
2022/12/05 09:33:22;;;;;;;11.43;5.47;;;;;;;;;;5103983;28;20027;-70
2022/12/05 09:35:48;;;;;;;12.57;4.80;;;;;;;;;;5107850;27;20536;-68
2022/12/05 09:38:13;;;;;;;10.07;5.05;;;;;;;;;;5087077;28;20034;-68
2022/12/05 09:40:42;;;;;;;11.73;6.07;;;;;;;;;;5089101;28;20044;-69
2022/12/05 09:43:14;;;;;;;15.00;6.22;;;;;;;;;;5078246;28;20019;-70
2022/12/05 09:45:44;;;;;;;11.70;4.80;;;;;;;;;;5101720;28;20024;-70
2022/12/05 09:48:14;;;;;;;12.50;6.35;;;;;;;;;;5092769;28;20075;-66
2022/12/05 09:50:44;;;;;;;12.63;6.22;;;;;;;;;;5102943;28;20485;-69
2022/12/05 09:53:21;;;;;;;12.55;5.60;;;;;;;;;;5083451;28;20019;-68
2022/12/05 09:56:10;;;;;;;18.02;6.72;;;;;;;;;;5102200;28;20118;-69
2022/12/05 09:58:55;;;;;;;10.65;5.50;;;;;;;;;;5089454;28;20047;-69
2022/12/05 10:01:27;;;;;;;10.98;5.03;;;;;;;;;;5094435;28;20046;-69
2022/12/05 10:04:11;;;;;;;12.70;5.45;;;;;;;;;;5101685;28;20107;-68
2022/12/05 10:06:40;;;;;;;11.98;6.13;;;;;;;;;;5100712;27;20035;-70
2022/12/05 10:09:12;;;;;;;8.98;4.72;;;;;;;;;;5074921;28;20470;-68
2022/12/05 10:11:44;;;;;;;10.77;4.90;;;;;;;;;;5084632;28;20126;-66
2022/12/05 10:14:15;;;;;;;9.95;4.93;;;;;;;;;;5085818;28;20023;-67
2022/12/05 10:16:46;;;;;;;9.93;4.90;;;;;;;;;;5102463;28;20068;-67
2022/12/05 10:19:15;;;;;;;7.32;4.50;;;;;;;;;;5103819;27;20027;-68
2022/12/05 10:21:46;;;;;;;8.18;4.50;;;;;;;;;;5107304;27;20059;-67
2022/12/05 10:24:17;;;;;;;9.15;5.00;;;;;;;;;;5098787;28;20051;-68
2022/12/05 10:26:48;;;;;;;9.77;4.70;;;;;;;;;;5081419;28;20427;-67
2022/12/05 10:29:16;;;;;;;9.05;4.60;;;;;;;;;;5091512;28;20054;-67
2022/12/05 10:31:43;;;;;;;16.00;6.05;;;;;;;;;;5080954;28;20028;-67
2022/12/05 10:34:14;;;;;;;15.10;5.40;;;;;;;;;;5092355;28;20030;-68
2022/12/05 10:37:15;;;;;;;12.30;6.00;;;;;;;;;;5107108;27;20546;-68
2022/12/05 10:39:42;;;;;;;17.08;6.70;;;;;;;;;;5097628;27;20037;-70
2022/12/05 10:42:16;;;;;;;11.77;5.20;;;;;;;;;;5097496;28;20027;-69
2022/12/05 10:44:42;;;;;;;10.60;5.18;;;;;;;;;;5098999;27;20024;-68
2022/12/05 10:47:08;;;;;;;8.73;5.07;;;;;;;;;;5105290;28;20045;-65
2022/12/05 10:49:33;;;;;;;15.98;5.82;;;;;;;;;;5104601;28;20047;-68
2022/12/05 10:51:59;;;;;;;10.75;5.80;;;;;;;;;;5103292;28;20047;-69
2022/12/05 10:54:28;;;;;;;10.65;5.55;;;;;;;;;;5090045;28;20428;-67
2022/12/05 10:56:53;;;;;;;15.40;6.55;;;;;;;;;;5099629;28;20031;-66
2022/12/05 10:59:22;;;;;;;17.25;7.57;;;;;;;;;;5100925;28;20630;-68
2022/12/05 11:01:50;;;;;;;13.68;5.03;;;;;;;;;;5107352;28;20028;-68
2022/12/05 11:04:18;;;;;;;11.52;5.28;;;;;;;;;;5089950;28;20020;-67
2022/12/05 11:06:51;;;;;;;13.23;4.90;;;;;;;;;;5089820;28;20038;-68
2022/12/05 11:09:18;;;;;;;18.02;6.18;;;;;;;;;;5090068;28;20047;-68
2022/12/05 11:11:56;;;;;;;8.00;5.10;;;;;;;;;;5090078;28;20085;-69
2022/12/05 11:14:23;;;;;;;13.82;5.25;;;;;;;;;;5107238;28;20015;-68
2022/12/05 11:16:56;;;;;;;10.27;5.57;;;;;;;;;;5107566;28;20664;-67
2022/12/05 11:19:21;;;;;;;9.55;5.80;;;;;;;;;;5105726;28;20028;-69
2022/12/05 11:21:47;;;;;;;12.43;5.72;;;;;;;;;;5106296;28;20024;-66
2022/12/05 11:24:19;;;;;;;13.95;5.65;;;;;;;;;;5105379;28;20602;-67
2022/12/05 11:26:44;;;;;;;14.55;5.75;;;;;;;;;;5087563;28;20703;-68
2022/12/05 11:29:28;;;;;;;9.32;5.32;;;;;;;;;;5108135;28;20047;-67
2022/12/05 11:31:53;;;;;;;8.07;4.55;;;;;;;;;;5089893;28;20114;-68
2022/12/05 11:34:22;;;;;;;9.50;5.28;;;;;;;;;;5107641;28;20111;-67
2022/12/05 11:36:50;;;;;;;18.83;6.10;;;;;;;;;;5106085;28;20063;-67
2022/12/05 11:39:16;;;;;;;12.02;5.78;;;;;;;;;;5109079;28;20132;-68
2022/12/05 11:41:55;;;;;;;11.55;5.90;;;;;;;;;;5109199;28;20028;-68
2022/12/05 11:44:43;;;;;;;17.17;6.15;;;;;;;;;;5089881;28;20020;-68
2022/12/05 11:47:26;;;;;;;9.93;6.15;;;;;;;;;;5104231;28;20027;-68
2022/12/05 11:49:58;;;;;;;13.25;5.85;;;;;;;;;;5090607;28;20540;-67
2022/12/05 11:52:32;;;;;;;18.52;11.40;;;;;;;;;;5108898;28;20081;-68
2022/12/05 11:55:16;;;;;;;9.40;5.85;;;;;;;;;;5090647;28;20019;-68
2022/12/05 11:57:41;;;;;;;10.27;5.82;;;;;;;;;;5109007;28;20031;-67
2022/12/05 12:00:14;;;;;;;16.10;6.90;;;;;;;;;;5097641;28;20480;-69
2022/12/05 12:02:39;;;;;;;12.13;6.55;;;;;;;;;;5088739;28;20553;-67
2022/12/05 12:05:21;;;;;;;13.55;5.88;;;;;;;;;;5100425;28;20098;-69
2022/12/05 12:07:56;;;;;;;8.48;5.20;;;;;;;;;;5084952;28;20069;-67
2022/12/05 12:10:30;;;;;;;12.48;6.63;;;;;;;;;;5106741;28;20027;-68
2022/12/05 12:13:15;;;;;;;12.38;6.47;;;;;;;;;;5089534;28;20107;-68
2022/12/05 12:15:40;;;;;;;13.45;6.07;;;;;;;;;;5104936;27;20043;-68
2022/12/05 12:18:22;;;;;;;21.20;8.77;;;;;;;;;;5091882;28;20027;-69
2022/12/05 12:20:57;;;;;;;12.18;7.10;;;;;;;;;;5110936;28;20020;-67
2022/12/05 12:23:41;;;;;;;14.27;8.35;;;;;;;;;;5110730;28;20020;-69
2022/12/05 12:26:09;;;;;;;15.10;6.50;;;;;;;;;;5088863;28;20403;-69
2022/12/05 12:28:41;;;;;;;11.57;6.33;;;;;;;;;;5106958;28;20471;-67
2022/12/05 12:31:18;;;;;;;10.30;5.90;;;;;;;;;;5104688;28;20023;-68
2022/12/05 12:33:44;;;;;;;12.93;6.57;;;;;;;;;;5101143;28;20070;-68
2022/12/05 12:36:15;;;;;;;11.00;7.38;;;;;;;;;;5100916;28;20612;-67
2022/12/05 12:38:51;;;;;;;10.88;5.95;;;;;;;;;;5088226;28;20027;-67
2022/12/05 12:41:34;;;;;;;20.23;6.68;;;;;;;;;;5110636;28;20027;-67
2022/12/05 12:44:18;;;;;;;10.35;6.60;;;;;;;;;;5088885;28;20110;-66
2022/12/05 12:46:52;;;;;;;14.50;7.20;;;;;;;;;;5083806;28;20035;-66
2022/12/05 12:49:30;;;;;;;10.80;6.47;;;;;;;;;;5102478;28;20044;-67
2022/12/05 12:52:04;;;;;;;12.10;6.60;;;;;;;;;;5103405;28;20081;-67
2022/12/05 12:54:51;;;;;;;14.70;7.40;;;;;;;;;;5105056;28;20048;-69
2022/12/05 12:57:31;;;;;;;10.30;6.22;;;;;;;;;;5103174;27;20041;-68
2022/12/05 13:00:03;;;;;;;10.70;5.50;;;;;;;;;;5122968;27;20035;-67
2022/12/05 13:02:47;;;;;;;12.30;7.03;;;;;;;;;;5104839;28;20745;-67
2022/12/05 13:05:22;;;;;;;9.93;4.85;;;;;;;;;;5094135;28;20075;-67
2022/12/05 13:07:55;;;;;;;9.35;5.45;;;;;;;;;;5079868;28;20301;-67
2022/12/05 13:10:39;;;;;;;10.75;5.95;;;;;;;;;;5099422;28;20106;-68
2022/12/05 13:13:05;;;;;;;13.98;6.70;;;;;;;;;;5073863;28;20023;-67
2022/12/05 13:15:34;;;;;;;11.50;5.95;;;;;;;;;;5106676;28;20060;-67
2022/12/05 13:17:59;;;;;;;;;;;;;;;;;;5103234;28;20029;-66
2022/12/05 13:20:26;;;;;;;10.73;6.10;;;;;;;;;;5089553;28;20486;-69
2022/12/05 13:22:53;;;;;;;12.90;5.15;;;;;;;;;;5087351;28;20074;-67
2022/12/05 13:25:20;;;;;;;13.77;6.25;;;;;;;;;;5106074;28;20024;-69
2022/12/05 13:27:56;;;;;;;13.75;6.38;;;;;;;;;;5100585;27;20020;-70
2022/12/05 13:30:22;;;;;;;15.70;8.40;;;;;;;;;;5098282;27;20100;-69
2022/12/05 13:32:54;;;;;;;15.30;8.23;;;;;;;;;;5086850;28;20047;-70
2022/12/05 13:43:52;;;;;;;10.80;5.65;;;;;;;;;;5101944;28;20034;-69
2022/12/05 13:46:43;;;;;;;9.60;5.28;;;;;;;;;;5093217;27;20016;-67
2022/12/05 13:49:28;;;;;;;10.60;4.72;;;;;;;;;;5095103;27;20059;-68
2022/12/05 13:52:02;;;;;;;14.05;6.63;;;;;;;;;;5101080;28;20031;-71
2022/12/05 13:54:29;;;;;;;14.32;7.38;;;;;;;;;;5089758;28;20580;-71
2022/12/05 13:57:00;;;;;;;17.23;7.43;;;;;;;;;;5079894;28;20247;-69
2022/12/05 13:59:44;;;;;;;14.30;8.02;;;;;;;;;;5096217;27;20478;-70
2022/12/05 14:02:28;;;;;;;22.65;7.93;;;;;;;;;;5082018;28;20024;-69
2022/12/05 14:04:54;;;;;;;16.48;7.60;;;;;;;;;;5071422;28;20024;-70
2022/12/05 14:07:41;;;;;;;11.48;7.22;;;;;;;;;;5101965;28;20119;-70
2022/12/05 14:10:07;;;;;;;16.92;7.20;;;;;;;;;;5094785;28;20024;-69
2022/12/05 14:12:45;;;;;;;12.38;7.07;;;;;;;;;;5092375;28;20499;-70
2022/12/05 14:15:29;;;;;;;14.77;6.55;;;;;;;;;;5091256;28;20035;-68
2022/12/05 14:18:08;;;;;;;16.77;6.70;;;;;;;;;;5106014;28;20084;-70
2022/12/05 14:20:48;;;;;;;19.57;8.90;;;;;;;;;;5106911;27;20042;-69
2022/12/05 14:23:14;;;;;;;19.05;8.13;;;;;;;;;;5102247;28;20020;-68
2022/12/05 14:25:58;;;;;;;22.95;8.85;;;;;;;;;;5089254;28;20027;-69
2022/12/05 14:28:36;;;;;;;16.90;8.52;;;;;;;;;;5098425;27;20043;-69
2022/12/05 14:31:14;;;;;;;23.95;10.13;;;;;;;;;;5089370;27;20030;-69
2022/12/05 14:33:39;;;;;;;20.15;8.00;;;;;;;;;;5083492;28;20027;-70
2022/12/05 14:36:06;;;;;;;17.88;7.70;;;;;;;;;;5099878;28;20043;-68
2022/12/05 14:38:32;;;;;;;18.23;7.35;;;;;;;;;;5086588;28;20024;-68
2022/12/05 14:41:23;;;;;;;14.38;6.97;;;;;;;;;;5083768;28;20024;-68
2022/12/05 14:43:52;;;;;;;15.77;6.85;;;;;;;;;;5116664;27;20016;-68
2022/12/05 14:46:22;;;;;;;22.10;8.15;;;;;;;;;;5104535;28;20027;-68
2022/12/05 14:48:48;;;;;;;;;;;;;;;;;;5078916;28;20051;-69
2022/12/05 14:53:32;;;;;;;14.40;7.47;;;;;;;;;;5092498;27;20184;-66
2022/12/05 14:56:15;;;;;;;16.17;7.63;;;;;;;;;;5080689;28;20094;-66
2022/12/05 14:58:56;;;;;;;13.75;7.63;;;;;;;;;;5069999;28;20016;-67
